Aeroporto :
LOGIN :

Iscrizione | Disclaimer

   EN    FR    IT 

 










Sommario :    VFR   VFR Marginale   IFR   IFR Intensivo   IFR Molto Intensivo
Visibilità : 
Base nubi : 
>= 8 km
>= 3000ft
5 / 8 km
1000 / 3000 ft
1500m / 5 km
500 / 1000 ft
800 / 1500m
200 / 500 ft
< 800m
< 200 ft
Simboli :   Temporali  Nebbia  Neve Forte  Precipitazioni Forti  Vento > 20 kt
SIGMETs :   Varie  Temporali  Ghiacco  Turbolenza  Onda orograficha  Ceneri Vulcaniche







- Altitudine del aeroporto : 289 ft
- Codice IATA : ZAD


LDZD - Zadar

ULTIMO METAR :
  • 192300Z 13004KT 0400 R14/0175N FG NSC 02/01 Q1022

METARs OBSOLETI :
  • 192230Z 13003KT 0800 R14/0150N FG NSC 00/M00 Q1022
  • 192200Z 13002KT 0800 R14/0150N FG NSC 02/01 Q1022
  • 192130Z 14002KT 2000 0500N R14/1100U BCFG FEW007 02/02 Q1023
  • 192100Z 13002KT 5000 1200N R14/0325U BCFG FEW007 02/02 Q1022 TEMPO 0600 FG

TAF TAF LDZD
Valido dal 20 a 00 ore il 21 a 00 ore UTC


192325Z 2000/2100 VRB02KT 4500 BR SCT008 TX15/2012Z TN01/2005Z
TEMPO 2000/2008 0500 BCFG
PROB30
TEMPO 2001/2008 BKN003
BECMG 2008/2010 CAVOK
BECMG 2011/2013 30009KT
BECMG 2016/2018 VRB02KT
BECMG 2021/2023 2000 BR
Nessun NOTAM noto per questo aeroporto.



MetMap, La meteo Aeronautica in un colpo d'occhio ! - Copyright ORBIFLY Dicembre 2007 - Disclaimer

ORBIFLY MET'MAP TEAM :

Programmazione e sviluppo : Alexandra Zaïnal
Concezione e sviluppo : Baudouin d'Aumeries
Co-Programmazione e sviluppo : Marc-Olivier Méhu
Supporto tecnico e logistico : Manuel Goepfert
Aiuto per la traduzione : Arnaldo La Scala

Contatto : metmap@orbifly.com




FONTI E CREDITI :

   NOAA